Orbital elements of FENGYUN 1C DEB
| Launched | 9 May 1999 |
| Flight ended | – |
| Launch site | Taiyuan Space Center, PRC |
| Owner | People's Republic of China |
| NORAD ID | 29810 |
| Date fetched |
Epoch osculation |
Inc. [°] |
Ecc. | RA asc node [hr] |
Arg Peri. [°] |
Mean anom [°] |
Mean motion [rev/day] |
Abs. mag |
| Date fetched |
Epoch osculation |
Inc. [°] |
Ecc. | RA asc node [hr] |
Arg Peri. [°] |
Mean anom [°] |
Mean motion [rev/day] |
Abs. mag |
| 2026 May 03 17:57 | 2026 Apr 30 15:05:28 | 99.1835 | 0.00658 | 11.3367 | 338.6561 | 174.7452 | 14.29335 | – |
| 2026 May 02 17:57 | 2026 Apr 30 15:05:28 | 99.1835 | 0.00658 | 11.3367 | 338.6561 | 174.7452 | 14.29335 | – |
| 2026 May 01 17:56 | 2026 Apr 30 15:05:28 | 99.1835 | 0.00658 | 11.3367 | 338.6561 | 174.7452 | 14.29335 | – |
| 2026 Apr 30 17:56 | 2026 Apr 30 15:05:28 | 99.1835 | 0.00658 | 11.3367 | 338.6561 | 174.7452 | 14.29335 | – |
| 2026 Apr 29 17:57 | 2026 Apr 24 09:09:08 | 99.1844 | 0.00661 | 10.8979 | 356.8207 | 174.7452 | 14.29335 | – |
| 2026 Apr 28 17:56 | 2026 Apr 24 09:09:08 | 99.1844 | 0.00661 | 10.8979 | 356.8207 | 174.7452 | 14.29335 | – |
| 2026 Apr 27 17:58 | 2026 Apr 24 09:09:08 | 99.1844 | 0.00661 | 10.8979 | 356.8207 | 174.7452 | 14.29335 | – |
| 2026 Apr 26 17:58 | 2026 Apr 24 09:09:08 | 99.1844 | 0.00661 | 10.8979 | 356.8207 | 174.7452 | 14.29335 | – |
| 2026 Apr 25 17:58 | 2026 Apr 24 09:09:08 | 99.1844 | 0.00661 | 10.8979 | 356.8207 | 174.7452 | 14.29335 | – |
| 2026 Apr 24 17:59 | 2026 Apr 24 09:09:08 | 99.1844 | 0.00661 | 10.8979 | 356.8207 | 174.7452 | 14.29335 | – |
| 2026 Apr 23 17:57 | 2026 Apr 19 09:37:37 | 99.1852 | 0.00664 | 10.5480 | 11.1804 | 174.7452 | 14.29335 | – |
| 2026 Apr 22 17:57 | 2026 Apr 19 09:37:37 | 99.1852 | 0.00664 | 10.5480 | 11.1804 | 174.7452 | 14.29335 | – |
| 2026 Apr 21 17:57 | 2026 Apr 19 09:37:37 | 99.1852 | 0.00664 | 10.5480 | 11.1804 | 174.7452 | 14.29335 | – |
| 2026 Apr 20 17:57 | 2026 Apr 19 09:37:37 | 99.1852 | 0.00664 | 10.5480 | 11.1804 | 174.7452 | 14.29335 | – |
| 2026 Apr 19 17:58 | 2026 Apr 19 09:37:37 | 99.1852 | 0.00664 | 10.5480 | 11.1804 | 174.7452 | 14.29335 | – |
| 2026 Apr 18 17:56 | 2026 Apr 13 02:29:31 | 99.1864 | 0.00668 | 10.1056 | 29.2887 | 174.7452 | 14.29335 | – |
| 2026 Apr 16 17:57 | 2026 Apr 13 02:29:31 | 99.1864 | 0.00668 | 10.1056 | 29.2887 | 174.7452 | 14.29335 | – |
| 2026 Apr 14 17:57 | 2026 Apr 13 02:29:31 | 99.1864 | 0.00668 | 10.1056 | 29.2887 | 174.7452 | 14.29335 | – |
| 2026 Apr 13 17:57 | 2026 Apr 13 02:29:31 | 99.1864 | 0.00668 | 10.1056 | 29.2887 | 174.7452 | 14.29335 | – |
| 2026 Apr 12 17:57 | 2026 Apr 08 01:39:55 | 99.1872 | 0.00670 | 9.7519 | 43.7029 | 174.7452 | 14.29335 | – |
| 2026 Apr 11 17:57 | 2026 Apr 08 01:39:55 | 99.1872 | 0.00670 | 9.7519 | 43.7029 | 174.7452 | 14.29335 | – |
| 2026 Apr 10 17:58 | 2026 Apr 08 01:39:55 | 99.1872 | 0.00670 | 9.7519 | 43.7029 | 174.7452 | 14.29335 | – |
| 2026 Apr 09 18:01 | 2026 Apr 08 01:39:55 | 99.1872 | 0.00670 | 9.7519 | 43.7029 | 174.7452 | 14.29335 | – |
| 2026 Apr 08 17:57 | 2026 Apr 08 01:39:55 | 99.1872 | 0.00670 | 9.7519 | 43.7029 | 174.7452 | 14.29335 | – |
| 2026 Apr 07 17:57 | 2026 Apr 02 02:41:26 | 99.1883 | 0.00673 | 9.3333 | 60.6981 | 174.7452 | 14.29335 | – |
| 2026 Apr 06 17:57 | 2026 Apr 02 02:41:26 | 99.1883 | 0.00673 | 9.3333 | 60.6981 | 174.7452 | 14.29335 | – |